sensor_id;sensor_type;location;lat;lon;timestamp;P1;durP1;ratioP1;P2;durP2;ratioP2
19780;SDS011;10050;55.492;13.506;2023-07-22T00:01:14;4.60;;;3.03;;
19780;SDS011;10050;55.492;13.506;2023-07-22T00:03:39;4.53;;;3.00;;
19780;SDS011;10050;55.492;13.506;2023-07-22T00:06:06;2.83;;;2.63;;
19780;SDS011;10050;55.492;13.506;2023-07-22T00:08:33;2.63;;;2.40;;
19780;SDS011;10050;55.492;13.506;2023-07-22T00:10:59;2.67;;;2.47;;
19780;SDS011;10050;55.492;13.506;2023-07-22T00:13:24;2.77;;;2.50;;
19780;SDS011;10050;55.492;13.506;2023-07-22T00:15:54;2.87;;;2.67;;
19780;SDS011;10050;55.492;13.506;2023-07-22T00:18:19;2.77;;;2.37;;
19780;SDS011;10050;55.492;13.506;2023-07-22T00:20:45;2.93;;;2.57;;
19780;SDS011;10050;55.492;13.506;2023-07-22T00:23:11;2.53;;;2.10;;
19780;SDS011;10050;55.492;13.506;2023-07-22T00:25:37;2.73;;;2.50;;
19780;SDS011;10050;55.492;13.506;2023-07-22T00:28:03;2.53;;;2.33;;
19780;SDS011;10050;55.492;13.506;2023-07-22T00:30:31;3.13;;;2.50;;
19780;SDS011;10050;55.492;13.506;2023-07-22T00:32:56;2.87;;;2.57;;
19780;SDS011;10050;55.492;13.506;2023-07-22T00:35:22;2.27;;;2.07;;
19780;SDS011;10050;55.492;13.506;2023-07-22T00:37:48;3.07;;;2.80;;
19780;SDS011;10050;55.492;13.506;2023-07-22T00:40:13;2.50;;;2.30;;
19780;SDS011;10050;55.492;13.506;2023-07-22T00:42:39;2.60;;;2.23;;
19780;SDS011;10050;55.492;13.506;2023-07-22T00:45:05;2.20;;;2.00;;
19780;SDS011;10050;55.492;13.506;2023-07-22T00:47:32;2.43;;;2.13;;
19780;SDS011;10050;55.492;13.506;2023-07-22T00:49:59;2.40;;;2.20;;
19780;SDS011;10050;55.492;13.506;2023-07-22T00:52:27;2.27;;;1.90;;
19780;SDS011;10050;55.492;13.506;2023-07-22T00:54:53;4.33;;;1.90;;
19780;SDS011;10050;55.492;13.506;2023-07-22T00:57:20;2.87;;;1.87;;
19780;SDS011;10050;55.492;13.506;2023-07-22T00:59:45;1.90;;;1.80;;
19780;SDS011;10050;55.492;13.506;2023-07-22T01:02:11;2.17;;;2.03;;
19780;SDS011;10050;55.492;13.506;2023-07-22T01:04:37;1.90;;;1.80;;
19780;SDS011;10050;55.492;13.506;2023-07-22T01:07:03;4.63;;;1.83;;
19780;SDS011;10050;55.492;13.506;2023-07-22T01:09:37;3.97;;;1.83;;
19780;SDS011;10050;55.492;13.506;2023-07-22T01:12:03;2.40;;;1.73;;
19780;SDS011;10050;55.492;13.506;2023-07-22T01:14:31;3.50;;;1.83;;
19780;SDS011;10050;55.492;13.506;2023-07-22T01:17:05;3.77;;;2.00;;
19780;SDS011;10050;55.492;13.506;2023-07-22T01:19:32;3.30;;;1.90;;
19780;SDS011;10050;55.492;13.506;2023-07-22T01:22:05;3.27;;;2.00;;
19780;SDS011;10050;55.492;13.506;2023-07-22T01:24:34;2.40;;;1.80;;
19780;SDS011;10050;55.492;13.506;2023-07-22T01:27:01;1.93;;;1.70;;
19780;SDS011;10050;55.492;13.506;2023-07-22T01:29:28;2.73;;;1.90;;
19780;SDS011;10050;55.492;13.506;2023-07-22T01:31:54;2.47;;;1.53;;
19780;SDS011;10050;55.492;13.506;2023-07-22T01:34:20;2.00;;;1.80;;
19780;SDS011;10050;55.492;13.506;2023-07-22T01:36:47;5.47;;;2.20;;
19780;SDS011;10050;55.492;13.506;2023-07-22T01:39:14;2.77;;;1.90;;
19780;SDS011;10050;55.492;13.506;2023-07-22T01:41:40;4.03;;;2.20;;
19780;SDS011;10050;55.492;13.506;2023-07-22T01:44:06;3.03;;;1.80;;
19780;SDS011;10050;55.492;13.506;2023-07-22T01:46:33;5.37;;;1.70;;
19780;SDS011;10050;55.492;13.506;2023-07-22T01:48:59;3.83;;;2.10;;
19780;SDS011;10050;55.492;13.506;2023-07-22T01:51:24;1.50;;;1.40;;
19780;SDS011;10050;55.492;13.506;2023-07-22T01:53:50;2.20;;;1.73;;
19780;SDS011;10050;55.492;13.506;2023-07-22T01:56:16;4.00;;;1.70;;
19780;SDS011;10050;55.492;13.506;2023-07-22T01:58:42;2.30;;;2.00;;
19780;SDS011;10050;55.492;13.506;2023-07-22T02:01:08;2.10;;;1.93;;
19780;SDS011;10050;55.492;13.506;2023-07-22T02:03:33;2.40;;;1.80;;
19780;SDS011;10050;55.492;13.506;2023-07-22T02:06:02;2.23;;;1.70;;
19780;SDS011;10050;55.492;13.506;2023-07-22T02:08:29;2.00;;;1.63;;
19780;SDS011;10050;55.492;13.506;2023-07-22T02:10:54;3.27;;;1.67;;
19780;SDS011;10050;55.492;13.506;2023-07-22T02:13:23;3.33;;;1.30;;
19780;SDS011;10050;55.492;13.506;2023-07-22T02:15:49;1.60;;;1.50;;
19780;SDS011;10050;55.492;13.506;2023-07-22T02:18:14;2.63;;;1.70;;
19780;SDS011;10050;55.492;13.506;2023-07-22T02:20:42;1.50;;;1.40;;
19780;SDS011;10050;55.492;13.506;2023-07-22T02:23:08;2.03;;;1.47;;
19780;SDS011;10050;55.492;13.506;2023-07-22T02:25:34;2.47;;;1.77;;
19780;SDS011;10050;55.492;13.506;2023-07-22T02:28:01;1.83;;;1.40;;
19780;SDS011;10050;55.492;13.506;2023-07-22T02:30:28;1.97;;;1.67;;
19780;SDS011;10050;55.492;13.506;2023-07-22T02:32:54;2.27;;;1.80;;
19780;SDS011;10050;55.492;13.506;2023-07-22T02:35:20;4.03;;;1.80;;
19780;SDS011;10050;55.492;13.506;2023-07-22T02:37:45;1.73;;;1.53;;
19780;SDS011;10050;55.492;13.506;2023-07-22T02:40:11;1.97;;;1.70;;
19780;SDS011;10050;55.492;13.506;2023-07-22T02:42:37;3.53;;;1.43;;
19780;SDS011;10050;55.492;13.506;2023-07-22T02:45:03;1.97;;;1.70;;
19780;SDS011;10050;55.492;13.506;2023-07-22T02:47:29;1.63;;;1.53;;
19780;SDS011;10050;55.492;13.506;2023-07-22T02:49:57;1.63;;;1.53;;
19780;SDS011;10050;55.492;13.506;2023-07-22T02:52:23;2.70;;;1.83;;
19780;SDS011;10050;55.492;13.506;2023-07-22T02:55:08;4.97;;;1.60;;
19780;SDS011;10050;55.492;13.506;2023-07-22T02:57:43;1.80;;;1.70;;
19780;SDS011;10050;55.492;13.506;2023-07-22T03:00:11;3.80;;;2.10;;
19780;SDS011;10050;55.492;13.506;2023-07-22T03:02:38;2.23;;;1.60;;
19780;SDS011;10050;55.492;13.506;2023-07-22T03:05:04;1.67;;;1.57;;
19780;SDS011;10050;55.492;13.506;2023-07-22T03:07:41;3.20;;;1.90;;
19780;SDS011;10050;55.492;13.506;2023-07-22T03:10:07;3.30;;;1.73;;
19780;SDS011;10050;55.492;13.506;2023-07-22T03:12:34;1.73;;;1.63;;
19780;SDS011;10050;55.492;13.506;2023-07-22T03:15:01;2.50;;;1.63;;
19780;SDS011;10050;55.492;13.506;2023-07-22T03:17:28;2.27;;;1.90;;
19780;SDS011;10050;55.492;13.506;2023-07-22T03:19:54;1.97;;;1.63;;
19780;SDS011;10050;55.492;13.506;2023-07-22T03:22:23;2.37;;;1.80;;
19780;SDS011;10050;55.492;13.506;2023-07-22T03:24:49;2.40;;;1.77;;
19780;SDS011;10050;55.492;13.506;2023-07-22T03:27:14;2.43;;;1.80;;
19780;SDS011;10050;55.492;13.506;2023-07-22T03:29:42;2.80;;;1.73;;
19780;SDS011;10050;55.492;13.506;2023-07-22T03:32:08;3.90;;;1.93;;
19780;SDS011;10050;55.492;13.506;2023-07-22T03:34:34;4.53;;;1.90;;
19780;SDS011;10050;55.492;13.506;2023-07-22T03:37:00;4.67;;;2.00;;
19780;SDS011;10050;55.492;13.506;2023-07-22T03:39:26;2.70;;;1.90;;
19780;SDS011;10050;55.492;13.506;2023-07-22T03:41:51;3.60;;;1.80;;
19780;SDS011;10050;55.492;13.506;2023-07-22T03:44:17;4.70;;;2.07;;
19780;SDS011;10050;55.492;13.506;2023-07-22T03:46:42;2.90;;;1.97;;
19780;SDS011;10050;55.492;13.506;2023-07-22T03:49:08;2.37;;;1.70;;
19780;SDS011;10050;55.492;13.506;2023-07-22T03:51:34;1.90;;;1.80;;
19780;SDS011;10050;55.492;13.506;2023-07-22T03:53:59;3.97;;;2.40;;
19780;SDS011;10050;55.492;13.506;2023-07-22T03:56:25;2.17;;;1.97;;
19780;SDS011;10050;55.492;13.506;2023-07-22T03:58:51;4.03;;;2.03;;
19780;SDS011;10050;55.492;13.506;2023-07-22T04:01:17;4.03;;;2.23;;
19780;SDS011;10050;55.492;13.506;2023-07-22T04:03:43;3.10;;;2.07;;
19780;SDS011;10050;55.492;13.506;2023-07-22T04:06:09;2.40;;;2.20;;
19780;SDS011;10050;55.492;13.506;2023-07-22T04:08:35;2.83;;;2.50;;
19780;SDS011;10050;55.492;13.506;2023-07-22T04:11:00;3.43;;;1.87;;
19780;SDS011;10050;55.492;13.506;2023-07-22T04:13:26;2.20;;;1.77;;
19780;SDS011;10050;55.492;13.506;2023-07-22T04:15:52;1.67;;;1.57;;
19780;SDS011;10050;55.492;13.506;2023-07-22T04:18:18;2.20;;;1.53;;
19780;SDS011;10050;55.492;13.506;2023-07-22T04:20:44;1.83;;;1.73;;
19780;SDS011;10050;55.492;13.506;2023-07-22T04:23:11;2.00;;;1.40;;
19780;SDS011;10050;55.492;13.506;2023-07-22T04:25:40;3.23;;;1.90;;
19780;SDS011;10050;55.492;13.506;2023-07-22T04:28:10;3.87;;;1.63;;
19780;SDS011;10050;55.492;13.506;2023-07-22T04:30:36;2.07;;;1.77;;
19780;SDS011;10050;55.492;13.506;2023-07-22T04:33:02;3.57;;;1.80;;
19780;SDS011;10050;55.492;13.506;2023-07-22T04:35:33;2.97;;;1.87;;
19780;SDS011;10050;55.492;13.506;2023-07-22T04:38:02;1.63;;;1.53;;
19780;SDS011;10050;55.492;13.506;2023-07-22T04:40:28;2.00;;;1.80;;
19780;SDS011;10050;55.492;13.506;2023-07-22T04:42:55;2.73;;;1.77;;
19780;SDS011;10050;55.492;13.506;2023-07-22T04:45:22;1.50;;;1.40;;
19780;SDS011;10050;55.492;13.506;2023-07-22T04:47:50;2.20;;;1.17;;
19780;SDS011;10050;55.492;13.506;2023-07-22T04:50:16;3.57;;;1.20;;
19780;SDS011;10050;55.492;13.506;2023-07-22T04:52:43;1.00;;;1.00;;
19780;SDS011;10050;55.492;13.506;2023-07-22T04:55:11;1.57;;;1.20;;
19780;SDS011;10050;55.492;13.506;2023-07-22T04:57:37;2.53;;;1.27;;
19780;SDS011;10050;55.492;13.506;2023-07-22T05:00:05;1.37;;;1.20;;
19780;SDS011;10050;55.492;13.506;2023-07-22T05:02:35;1.70;;;1.27;;
19780;SDS011;10050;55.492;13.506;2023-07-22T05:05:00;1.67;;;1.30;;
19780;SDS011;10050;55.492;13.506;2023-07-22T05:07:26;1.60;;;1.30;;
19780;SDS011;10050;55.492;13.506;2023-07-22T05:09:52;2.00;;;1.30;;
19780;SDS011;10050;55.492;13.506;2023-07-22T05:12:18;2.10;;;1.20;;
19780;SDS011;10050;55.492;13.506;2023-07-22T05:14:46;1.37;;;1.23;;
19780;SDS011;10050;55.492;13.506;2023-07-22T05:17:13;1.10;;;1.10;;
19780;SDS011;10050;55.492;13.506;2023-07-22T05:19:38;1.90;;;1.07;;
19780;SDS011;10050;55.492;13.506;2023-07-22T05:22:04;1.30;;;1.20;;
19780;SDS011;10050;55.492;13.506;2023-07-22T05:24:30;2.20;;;1.30;;
19780;SDS011;10050;55.492;13.506;2023-07-22T05:26:56;2.27;;;1.40;;
19780;SDS011;10050;55.492;13.506;2023-07-22T05:29:21;2.13;;;1.83;;
19780;SDS011;10050;55.492;13.506;2023-07-22T05:31:47;1.80;;;1.70;;
19780;SDS011;10050;55.492;13.506;2023-07-22T05:34:12;1.93;;;1.67;;
19780;SDS011;10050;55.492;13.506;2023-07-22T05:36:38;2.30;;;1.70;;
19780;SDS011;10050;55.492;13.506;2023-07-22T05:39:04;3.13;;;2.10;;
19780;SDS011;10050;55.492;13.506;2023-07-22T05:41:31;3.50;;;1.90;;
19780;SDS011;10050;55.492;13.506;2023-07-22T05:43:58;2.43;;;2.00;;
19780;SDS011;10050;55.492;13.506;2023-07-22T05:46:23;3.67;;;1.97;;
19780;SDS011;10050;55.492;13.506;2023-07-22T05:48:49;1.80;;;1.70;;
19780;SDS011;10050;55.492;13.506;2023-07-22T05:51:15;3.30;;;2.40;;
19780;SDS011;10050;55.492;13.506;2023-07-22T05:53:41;3.10;;;2.27;;
19780;SDS011;10050;55.492;13.506;2023-07-22T05:56:07;2.83;;;2.23;;
19780;SDS011;10050;55.492;13.506;2023-07-22T05:58:32;2.97;;;2.30;;
19780;SDS011;10050;55.492;13.506;2023-07-22T06:00:58;2.70;;;2.07;;
19780;SDS011;10050;55.492;13.506;2023-07-22T06:03:23;3.27;;;2.30;;
19780;SDS011;10050;55.492;13.506;2023-07-22T06:05:49;2.70;;;2.30;;
19780;SDS011;10050;55.492;13.506;2023-07-22T06:08:15;3.97;;;2.53;;
19780;SDS011;10050;55.492;13.506;2023-07-22T06:10:40;2.60;;;2.40;;
19780;SDS011;10050;55.492;13.506;2023-07-22T06:13:07;3.27;;;2.47;;
19780;SDS011;10050;55.492;13.506;2023-07-22T06:15:32;3.77;;;2.90;;
19780;SDS011;10050;55.492;13.506;2023-07-22T06:17:58;3.30;;;3.00;;
19780;SDS011;10050;55.492;13.506;2023-07-22T06:20:25;3.90;;;2.60;;
19780;SDS011;10050;55.492;13.506;2023-07-22T06:22:51;3.00;;;2.80;;
19780;SDS011;10050;55.492;13.506;2023-07-22T06:25:16;3.37;;;2.73;;
19780;SDS011;10050;55.492;13.506;2023-07-22T06:27:42;4.50;;;3.07;;
19780;SDS011;10050;55.492;13.506;2023-07-22T06:30:08;5.53;;;3.07;;
19780;SDS011;10050;55.492;13.506;2023-07-22T06:32:35;2.47;;;2.27;;
19780;SDS011;10050;55.492;13.506;2023-07-22T06:35:02;3.60;;;2.37;;
19780;SDS011;10050;55.492;13.506;2023-07-22T06:37:28;3.20;;;2.87;;
19780;SDS011;10050;55.492;13.506;2023-07-22T06:39:53;3.20;;;2.43;;
19780;SDS011;10050;55.492;13.506;2023-07-22T06:42:19;3.00;;;2.60;;
19780;SDS011;10050;55.492;13.506;2023-07-22T06:44:45;2.93;;;2.57;;
19780;SDS011;10050;55.492;13.506;2023-07-22T06:47:10;2.37;;;2.20;;
19780;SDS011;10050;55.492;13.506;2023-07-22T06:49:36;2.63;;;2.43;;
19780;SDS011;10050;55.492;13.506;2023-07-22T06:52:01;2.70;;;2.50;;
19780;SDS011;10050;55.492;13.506;2023-07-22T06:54:27;2.23;;;2.00;;
19780;SDS011;10050;55.492;13.506;2023-07-22T06:56:53;5.47;;;2.20;;
19780;SDS011;10050;55.492;13.506;2023-07-22T06:59:19;2.60;;;1.97;;
19780;SDS011;10050;55.492;13.506;2023-07-22T07:01:44;2.47;;;2.27;;
19780;SDS011;10050;55.492;13.506;2023-07-22T07:04:10;2.60;;;2.40;;
19780;SDS011;10050;55.492;13.506;2023-07-22T07:06:36;2.90;;;2.53;;
19780;SDS011;10050;55.492;13.506;2023-07-22T07:09:03;3.57;;;2.70;;
19780;SDS011;10050;55.492;13.506;2023-07-22T07:11:30;3.43;;;2.77;;
19780;SDS011;10050;55.492;13.506;2023-07-22T07:13:56;6.43;;;3.00;;
19780;SDS011;10050;55.492;13.506;2023-07-22T07:16:26;2.60;;;2.40;;
19780;SDS011;10050;55.492;13.506;2023-07-22T07:18:53;3.17;;;2.60;;
19780;SDS011;10050;55.492;13.506;2023-07-22T07:21:20;6.97;;;2.47;;
19780;SDS011;10050;55.492;13.506;2023-07-22T07:23:47;2.57;;;2.37;;
19780;SDS011;10050;55.492;13.506;2023-07-22T07:26:13;2.87;;;2.67;;
19780;SDS011;10050;55.492;13.506;2023-07-22T07:28:38;3.17;;;2.33;;
19780;SDS011;10050;55.492;13.506;2023-07-22T07:31:04;4.40;;;2.97;;
19780;SDS011;10050;55.492;13.506;2023-07-22T07:33:30;2.40;;;2.20;;
19780;SDS011;10050;55.492;13.506;2023-07-22T07:35:56;3.23;;;2.27;;
19780;SDS011;10050;55.492;13.506;2023-07-22T07:38:21;2.67;;;2.30;;
19780;SDS011;10050;55.492;13.506;2023-07-22T07:40:51;2.70;;;2.50;;
19780;SDS011;10050;55.492;13.506;2023-07-22T07:43:24;3.37;;;2.30;;
19780;SDS011;10050;55.492;13.506;2023-07-22T07:45:50;2.80;;;2.30;;
19780;SDS011;10050;55.492;13.506;2023-07-22T07:48:43;3.50;;;2.40;;
19780;SDS011;10050;55.492;13.506;2023-07-22T07:51:10;2.50;;;2.30;;
19780;SDS011;10050;55.492;13.506;2023-07-22T07:53:37;2.67;;;2.10;;
19780;SDS011;10050;55.492;13.506;2023-07-22T07:56:02;2.20;;;2.10;;
19780;SDS011;10050;55.492;13.506;2023-07-22T07:58:28;2.33;;;1.97;;
19780;SDS011;10050;55.492;13.506;2023-07-22T08:00:54;2.73;;;2.20;;
19780;SDS011;10050;55.492;13.506;2023-07-22T08:03:19;4.10;;;2.33;;
19780;SDS011;10050;55.492;13.506;2023-07-22T08:05:45;2.40;;;1.93;;
19780;SDS011;10050;55.492;13.506;2023-07-22T08:08:11;2.20;;;2.00;;
19780;SDS011;10050;55.492;13.506;2023-07-22T08:10:36;2.53;;;1.90;;
19780;SDS011;10050;55.492;13.506;2023-07-22T08:13:02;5.10;;;2.27;;
19780;SDS011;10050;55.492;13.506;2023-07-22T08:15:28;2.40;;;2.20;;
19780;SDS011;10050;55.492;13.506;2023-07-22T08:17:53;2.70;;;1.90;;
19780;SDS011;10050;55.492;13.506;2023-07-22T08:20:19;2.00;;;1.90;;
19780;SDS011;10050;55.492;13.506;2023-07-22T08:22:46;2.20;;;2.00;;
19780;SDS011;10050;55.492;13.506;2023-07-22T08:25:11;2.47;;;2.17;;
19780;SDS011;10050;55.492;13.506;2023-07-22T08:27:37;2.30;;;2.17;;
19780;SDS011;10050;55.492;13.506;2023-07-22T08:30:02;1.93;;;1.83;;
19780;SDS011;10050;55.492;13.506;2023-07-22T08:32:28;1.87;;;1.77;;
19780;SDS011;10050;55.492;13.506;2023-07-22T08:34:54;3.40;;;1.90;;
19780;SDS011;10050;55.492;13.506;2023-07-22T08:37:20;3.90;;;2.10;;
19780;SDS011;10050;55.492;13.506;2023-07-22T08:39:45;2.30;;;1.70;;
19780;SDS011;10050;55.492;13.506;2023-07-22T08:42:11;2.70;;;2.10;;
19780;SDS011;10050;55.492;13.506;2023-07-22T08:44:38;2.03;;;1.57;;
19780;SDS011;10050;55.492;13.506;2023-07-22T08:47:09;3.30;;;1.57;;
19780;SDS011;10050;55.492;13.506;2023-07-22T08:49:39;1.97;;;1.87;;
19780;SDS011;10050;55.492;13.506;2023-07-22T08:52:10;2.67;;;1.80;;
19780;SDS011;10050;55.492;13.506;2023-07-22T08:54:39;2.80;;;1.90;;
19780;SDS011;10050;55.492;13.506;2023-07-22T08:57:05;1.47;;;1.37;;
19780;SDS011;10050;55.492;13.506;2023-07-22T08:59:34;1.90;;;1.80;;
19780;SDS011;10050;55.492;13.506;2023-07-22T09:02:00;2.43;;;1.90;;
19780;SDS011;10050;55.492;13.506;2023-07-22T09:04:27;4.07;;;2.00;;
19780;SDS011;10050;55.492;13.506;2023-07-22T09:06:52;1.57;;;1.47;;
19780;SDS011;10050;55.492;13.506;2023-07-22T09:09:19;1.70;;;1.60;;
19780;SDS011;10050;55.492;13.506;2023-07-22T09:11:47;2.20;;;1.67;;
19780;SDS011;10050;55.492;13.506;2023-07-22T09:14:13;1.90;;;1.80;;
19780;SDS011;10050;55.492;13.506;2023-07-22T09:16:39;1.40;;;1.30;;
19780;SDS011;10050;55.492;13.506;2023-07-22T09:19:05;1.53;;;1.03;;
19780;SDS011;10050;55.492;13.506;2023-07-22T09:21:31;1.20;;;1.10;;
19780;SDS011;10050;55.492;13.506;2023-07-22T09:24:00;1.20;;;1.10;;
19780;SDS011;10050;55.492;13.506;2023-07-22T09:26:26;1.53;;;1.10;;
19780;SDS011;10050;55.492;13.506;2023-07-22T09:28:56;0.90;;;0.90;;
19780;SDS011;10050;55.492;13.506;2023-07-22T09:31:23;2.93;;;1.20;;
19780;SDS011;10050;55.492;13.506;2023-07-22T09:33:50;1.47;;;1.00;;
19780;SDS011;10050;55.492;13.506;2023-07-22T09:36:18;1.40;;;1.00;;
19780;SDS011;10050;55.492;13.506;2023-07-22T09:38:44;0.90;;;0.90;;
19780;SDS011;10050;55.492;13.506;2023-07-22T09:41:10;2.87;;;1.17;;
19780;SDS011;10050;55.492;13.506;2023-07-22T09:43:36;2.10;;;1.00;;
19780;SDS011;10050;55.492;13.506;2023-07-22T09:46:07;1.23;;;1.13;;
19780;SDS011;10050;55.492;13.506;2023-07-22T09:48:40;0.93;;;0.93;;
19780;SDS011;10050;55.492;13.506;2023-07-22T09:51:11;1.00;;;1.00;;
19780;SDS011;10050;55.492;13.506;2023-07-22T09:53:43;1.90;;;1.30;;
19780;SDS011;10050;55.492;13.506;2023-07-22T09:56:09;1.07;;;1.07;;
19780;SDS011;10050;55.492;13.506;2023-07-22T09:58:35;1.00;;;1.00;;
19780;SDS011;10050;55.492;13.506;2023-07-22T10:01:02;1.90;;;1.20;;
19780;SDS011;10050;55.492;13.506;2023-07-22T10:03:29;0.97;;;0.90;;
19780;SDS011;10050;55.492;13.506;2023-07-22T10:05:58;0.90;;;0.80;;
19780;SDS011;10050;55.492;13.506;2023-07-22T10:08:25;1.17;;;1.07;;
19780;SDS011;10050;55.492;13.506;2023-07-22T10:10:55;1.33;;;0.80;;
19780;SDS011;10050;55.492;13.506;2023-07-22T10:13:25;0.90;;;0.90;;
19780;SDS011;10050;55.492;13.506;2023-07-22T10:15:51;0.63;;;0.63;;
19780;SDS011;10050;55.492;13.506;2023-07-22T10:18:17;0.70;;;0.70;;
19780;SDS011;10050;55.492;13.506;2023-07-22T10:20:45;1.10;;;1.00;;
19780;SDS011;10050;55.492;13.506;2023-07-22T10:23:11;0.80;;;0.70;;
19780;SDS011;10050;55.492;13.506;2023-07-22T10:25:39;1.10;;;0.70;;
19780;SDS011;10050;55.492;13.506;2023-07-22T10:28:05;1.73;;;0.90;;
19780;SDS011;10050;55.492;13.506;2023-07-22T10:30:32;0.80;;;0.80;;
19780;SDS011;10050;55.492;13.506;2023-07-22T10:32:58;2.63;;;0.80;;
19780;SDS011;10050;55.492;13.506;2023-07-22T10:37:56;1.27;;;0.80;;
19780;SDS011;10050;55.492;13.506;2023-07-22T10:40:31;1.63;;;0.90;;
19780;SDS011;10050;55.492;13.506;2023-07-22T10:43:00;1.20;;;1.10;;
19780;SDS011;10050;55.492;13.506;2023-07-22T10:45:29;2.03;;;0.80;;
19780;SDS011;10050;55.492;13.506;2023-07-22T10:48:05;1.43;;;0.77;;
19780;SDS011;10050;55.492;13.506;2023-07-22T10:53:04;1.77;;;0.80;;
19780;SDS011;10050;55.492;13.506;2023-07-22T10:55:30;0.60;;;0.60;;
19780;SDS011;10050;55.492;13.506;2023-07-22T10:58:01;0.87;;;0.80;;
19780;SDS011;10050;55.492;13.506;2023-07-22T11:00:30;0.97;;;0.80;;
19780;SDS011;10050;55.492;13.506;2023-07-22T11:03:11;0.70;;;0.60;;
19780;SDS011;10050;55.492;13.506;2023-07-22T11:05:52;0.70;;;0.63;;
19780;SDS011;10050;55.492;13.506;2023-07-22T11:08:39;0.90;;;0.90;;
19780;SDS011;10050;55.492;13.506;2023-07-22T11:11:06;2.23;;;1.00;;
19780;SDS011;10050;55.492;13.506;2023-07-22T11:13:38;1.10;;;1.00;;
19780;SDS011;10050;55.492;13.506;2023-07-22T11:16:09;0.60;;;0.60;;
19780;SDS011;10050;55.492;13.506;2023-07-22T11:18:39;1.77;;;0.73;;
19780;SDS011;10050;55.492;13.506;2023-07-22T11:21:12;0.90;;;0.70;;
19780;SDS011;10050;55.492;13.506;2023-07-22T11:23:37;0.70;;;0.70;;
19780;SDS011;10050;55.492;13.506;2023-07-22T11:26:03;4.53;;;0.70;;
19780;SDS011;10050;55.492;13.506;2023-07-22T11:28:30;0.70;;;0.70;;
19780;SDS011;10050;55.492;13.506;2023-07-22T11:30:56;1.00;;;0.67;;
19780;SDS011;10050;55.492;13.506;2023-07-22T11:33:23;2.93;;;0.73;;
19780;SDS011;10050;55.492;13.506;2023-07-22T11:35:49;0.80;;;0.73;;
19780;SDS011;10050;55.492;13.506;2023-07-22T11:38:15;0.90;;;0.90;;
19780;SDS011;10050;55.492;13.506;2023-07-22T11:40:40;0.80;;;0.80;;
19780;SDS011;10050;55.492;13.506;2023-07-22T11:43:06;1.43;;;0.80;;
19780;SDS011;10050;55.492;13.506;2023-07-22T11:45:32;2.43;;;0.80;;
19780;SDS011;10050;55.492;13.506;2023-07-22T11:47:58;0.73;;;0.70;;
19780;SDS011;10050;55.492;13.506;2023-07-22T11:50:33;0.70;;;0.70;;
19780;SDS011;10050;55.492;13.506;2023-07-22T11:52:59;1.17;;;0.90;;
19780;SDS011;10050;55.492;13.506;2023-07-22T11:55:25;2.23;;;0.87;;
19780;SDS011;10050;55.492;13.506;2023-07-22T11:57:54;0.70;;;0.70;;
19780;SDS011;10050;55.492;13.506;2023-07-22T12:00:20;1.03;;;0.70;;
19780;SDS011;10050;55.492;13.506;2023-07-22T12:02:47;0.90;;;0.90;;
19780;SDS011;10050;55.492;13.506;2023-07-22T12:05:18;1.30;;;0.70;;
19780;SDS011;10050;55.492;13.506;2023-07-22T12:07:46;1.03;;;0.80;;
19780;SDS011;10050;55.492;13.506;2023-07-22T12:10:12;1.53;;;1.03;;
19780;SDS011;10050;55.492;13.506;2023-07-22T12:12:47;3.10;;;1.00;;
19780;SDS011;10050;55.492;13.506;2023-07-22T12:15:21;0.80;;;0.80;;
19780;SDS011;10050;55.492;13.506;2023-07-22T12:17:52;2.27;;;0.70;;
19780;SDS011;10050;55.492;13.506;2023-07-22T12:20:26;0.93;;;0.87;;
19780;SDS011;10050;55.492;13.506;2023-07-22T12:22:56;0.90;;;0.83;;
19780;SDS011;10050;55.492;13.506;2023-07-22T12:25:22;1.20;;;0.90;;
19780;SDS011;10050;55.492;13.506;2023-07-22T12:27:49;0.70;;;0.70;;
19780;SDS011;10050;55.492;13.506;2023-07-22T12:30:17;0.70;;;0.70;;
19780;SDS011;10050;55.492;13.506;2023-07-22T12:32:42;0.90;;;0.90;;
19780;SDS011;10050;55.492;13.506;2023-07-22T12:35:08;1.47;;;0.73;;
19780;SDS011;10050;55.492;13.506;2023-07-22T12:37:34;0.80;;;0.80;;
19780;SDS011;10050;55.492;13.506;2023-07-22T12:40:00;1.77;;;0.60;;
19780;SDS011;10050;55.492;13.506;2023-07-22T12:42:26;0.77;;;0.77;;
19780;SDS011;10050;55.492;13.506;2023-07-22T12:44:52;1.17;;;0.90;;
19780;SDS011;10050;55.492;13.506;2023-07-22T12:47:17;1.47;;;0.60;;
19780;SDS011;10050;55.492;13.506;2023-07-22T12:49:43;0.70;;;0.70;;
19780;SDS011;10050;55.492;13.506;2023-07-22T12:52:09;1.70;;;0.73;;
19780;SDS011;10050;55.492;13.506;2023-07-22T12:54:35;0.70;;;0.70;;
19780;SDS011;10050;55.492;13.506;2023-07-22T12:57:01;0.60;;;0.60;;
19780;SDS011;10050;55.492;13.506;2023-07-22T12:59:27;0.60;;;0.60;;
19780;SDS011;10050;55.492;13.506;2023-07-22T13:01:52;0.60;;;0.60;;
19780;SDS011;10050;55.492;13.506;2023-07-22T13:04:18;1.37;;;0.70;;
19780;SDS011;10050;55.492;13.506;2023-07-22T13:06:44;2.50;;;0.90;;
19780;SDS011;10050;55.492;13.506;2023-07-22T13:09:10;0.60;;;0.60;;
19780;SDS011;10050;55.492;13.506;2023-07-22T13:11:35;0.80;;;0.80;;
19780;SDS011;10050;55.492;13.506;2023-07-22T13:14:01;0.90;;;0.77;;
19780;SDS011;10050;55.492;13.506;2023-07-22T13:16:27;1.43;;;0.70;;
19780;SDS011;10050;55.492;13.506;2023-07-22T13:18:53;2.33;;;0.80;;
19780;SDS011;10050;55.492;13.506;2023-07-22T13:21:18;0.67;;;0.60;;
19780;SDS011;10050;55.492;13.506;2023-07-22T13:23:44;1.60;;;0.77;;
19780;SDS011;10050;55.492;13.506;2023-07-22T13:26:09;0.73;;;0.73;;
19780;SDS011;10050;55.492;13.506;2023-07-22T13:28:35;0.77;;;0.77;;
19780;SDS011;10050;55.492;13.506;2023-07-22T13:31:00;1.03;;;0.93;;
19780;SDS011;10050;55.492;13.506;2023-07-22T13:33:26;0.93;;;0.80;;
19780;SDS011;10050;55.492;13.506;2023-07-22T13:35:52;1.00;;;0.90;;
19780;SDS011;10050;55.492;13.506;2023-07-22T13:38:17;0.87;;;0.80;;
19780;SDS011;10050;55.492;13.506;2023-07-22T13:40:43;0.80;;;0.73;;
19780;SDS011;10050;55.492;13.506;2023-07-22T13:43:09;1.53;;;0.60;;
19780;SDS011;10050;55.492;13.506;2023-07-22T13:45:35;1.00;;;0.90;;
19780;SDS011;10050;55.492;13.506;2023-07-22T13:48:00;1.13;;;0.77;;
19780;SDS011;10050;55.492;13.506;2023-07-22T13:50:26;1.47;;;0.87;;
19780;SDS011;10050;55.492;13.506;2023-07-22T13:52:52;0.60;;;0.60;;
19780;SDS011;10050;55.492;13.506;2023-07-22T13:55:17;1.20;;;0.90;;
19780;SDS011;10050;55.492;13.506;2023-07-22T13:57:43;1.23;;;0.60;;
19780;SDS011;10050;55.492;13.506;2023-07-22T14:00:09;2.73;;;0.90;;
19780;SDS011;10050;55.492;13.506;2023-07-22T14:02:35;4.50;;;1.50;;
19780;SDS011;10050;55.492;13.506;2023-07-22T14:05:02;1.17;;;1.00;;
19780;SDS011;10050;55.492;13.506;2023-07-22T14:07:28;2.57;;;0.80;;
19780;SDS011;10050;55.492;13.506;2023-07-22T14:09:54;1.53;;;0.93;;
19780;SDS011;10050;55.492;13.506;2023-07-22T14:12:19;0.83;;;0.83;;
19780;SDS011;10050;55.492;13.506;2023-07-22T14:14:45;2.43;;;1.00;;
19780;SDS011;10050;55.492;13.506;2023-07-22T14:17:11;1.33;;;0.90;;
19780;SDS011;10050;55.492;13.506;2023-07-22T14:19:37;1.17;;;0.93;;
19780;SDS011;10050;55.492;13.506;2023-07-22T14:22:02;0.70;;;0.50;;
19780;SDS011;10050;55.492;13.506;2023-07-22T14:24:29;0.60;;;0.60;;
19780;SDS011;10050;55.492;13.506;2023-07-22T14:26:54;1.57;;;0.80;;
19780;SDS011;10050;55.492;13.506;2023-07-22T14:29:20;1.27;;;0.70;;
19780;SDS011;10050;55.492;13.506;2023-07-22T14:31:46;0.83;;;0.70;;
19780;SDS011;10050;55.492;13.506;2023-07-22T14:34:12;1.23;;;0.90;;
19780;SDS011;10050;55.492;13.506;2023-07-22T14:36:37;1.07;;;0.90;;